sensor_id;sensor_type;location;lat;lon;timestamp;temperature;humidity
10296;DHT22;5193;51.032;6.356;2022-09-09T00:00:50;15.00;99.90
10296;DHT22;5193;51.032;6.356;2022-09-09T00:03:24;15.00;99.90
10296;DHT22;5193;51.032;6.356;2022-09-09T00:09:08;15.00;99.90
10296;DHT22;5193;51.032;6.356;2022-09-09T00:11:55;14.90;99.90
10296;DHT22;5193;51.032;6.356;2022-09-09T00:17:14;14.90;99.90
10296;DHT22;5193;51.032;6.356;2022-09-09T00:19:50;14.80;99.90
10296;DHT22;5193;51.032;6.356;2022-09-09T00:22:23;14.80;99.90
10296;DHT22;5193;51.032;6.356;2022-09-09T00:24:55;14.80;99.90
10296;DHT22;5193;51.032;6.356;2022-09-09T00:27:41;14.70;99.90
10296;DHT22;5193;51.032;6.356;2022-09-09T00:30:23;14.70;99.90
10296;DHT22;5193;51.032;6.356;2022-09-09T00:32:53;14.70;99.90
10296;DHT22;5193;51.032;6.356;2022-09-09T00:35:30;14.70;99.90
10296;DHT22;5193;51.032;6.356;2022-09-09T00:38:00;14.60;99.90
10296;DHT22;5193;51.032;6.356;2022-09-09T00:40:37;14.60;99.90
10296;DHT22;5193;51.032;6.356;2022-09-09T00:43:30;14.60;99.90
10296;DHT22;5193;51.032;6.356;2022-09-09T00:46:16;14.50;99.90
10296;DHT22;5193;51.032;6.356;2022-09-09T00:57:32;14.40;99.90
10296;DHT22;5193;51.032;6.356;2022-09-09T01:11:00;14.20;99.90
10296;DHT22;5193;51.032;6.356;2022-09-09T01:13:30;14.20;99.90
10296;DHT22;5193;51.032;6.356;2022-09-09T01:15:58;14.20;99.90
10296;DHT22;5193;51.032;6.356;2022-09-09T01:18:44;14.20;99.90
10296;DHT22;5193;51.032;6.356;2022-09-09T01:21:27;14.10;99.90
10296;DHT22;5193;51.032;6.356;2022-09-09T01:24:24;14.10;99.90
10296;DHT22;5193;51.032;6.356;2022-09-09T01:26:56;14.10;99.90
10296;DHT22;5193;51.032;6.356;2022-09-09T01:29:24;14.10;99.90
10296;DHT22;5193;51.032;6.356;2022-09-09T01:31:59;14.10;99.90
10296;DHT22;5193;51.032;6.356;2022-09-09T01:34:29;14.10;99.90
10296;DHT22;5193;51.032;6.356;2022-09-09T01:36:57;14.10;99.90
10296;DHT22;5193;51.032;6.356;2022-09-09T01:39:25;14.10;99.90
10296;DHT22;5193;51.032;6.356;2022-09-09T01:41:51;14.10;99.90
10296;DHT22;5193;51.032;6.356;2022-09-09T01:44:18;14.10;99.90
10296;DHT22;5193;51.032;6.356;2022-09-09T01:46:44;14.10;99.90
10296;DHT22;5193;51.032;6.356;2022-09-09T01:49:10;14.10;99.90
10296;DHT22;5193;51.032;6.356;2022-09-09T01:51:39;14.20;99.90
10296;DHT22;5193;51.032;6.356;2022-09-09T01:54:07;14.20;99.90
10296;DHT22;5193;51.032;6.356;2022-09-09T01:56:38;14.20;99.90
10296;DHT22;5193;51.032;6.356;2022-09-09T02:07:51;14.30;99.90
10296;DHT22;5193;51.032;6.356;2022-09-09T02:10:32;14.30;99.90
10296;DHT22;5193;51.032;6.356;2022-09-09T02:13:07;14.30;99.90
10296;DHT22;5193;51.032;6.356;2022-09-09T02:15:58;14.30;99.90
10296;DHT22;5193;51.032;6.356;2022-09-09T02:18:41;14.30;99.90
10296;DHT22;5193;51.032;6.356;2022-09-09T02:21:08;14.40;99.90
10296;DHT22;5193;51.032;6.356;2022-09-09T02:23:38;14.40;99.90
10296;DHT22;5193;51.032;6.356;2022-09-09T02:26:06;14.50;99.90
10296;DHT22;5193;51.032;6.356;2022-09-09T02:28:33;14.50;99.90
10296;DHT22;5193;51.032;6.356;2022-09-09T02:31:00;14.50;99.90
10296;DHT22;5193;51.032;6.356;2022-09-09T02:33:30;14.50;99.90
10296;DHT22;5193;51.032;6.356;2022-09-09T02:35:59;14.50;99.90
10296;DHT22;5193;51.032;6.356;2022-09-09T02:38:31;14.50;99.90
10296;DHT22;5193;51.032;6.356;2022-09-09T02:40:57;14.60;99.90
10296;DHT22;5193;51.032;6.356;2022-09-09T02:43:24;14.60;99.90
10296;DHT22;5193;51.032;6.356;2022-09-09T02:46:24;14.60;99.90
10296;DHT22;5193;51.032;6.356;2022-09-09T02:49:04;14.70;99.90
10296;DHT22;5193;51.032;6.356;2022-09-09T02:51:46;14.70;99.90
10296;DHT22;5193;51.032;6.356;2022-09-09T02:54:25;14.70;99.90
10296;DHT22;5193;51.032;6.356;2022-09-09T02:56:53;14.70;99.90
10296;DHT22;5193;51.032;6.356;2022-09-09T02:59:22;14.70;99.90
10296;DHT22;5193;51.032;6.356;2022-09-09T03:01:50;14.70;99.90
10296;DHT22;5193;51.032;6.356;2022-09-09T03:04:16;14.70;99.90
10296;DHT22;5193;51.032;6.356;2022-09-09T03:06:42;14.70;99.90
10296;DHT22;5193;51.032;6.356;2022-09-09T03:09:08;14.70;99.90
10296;DHT22;5193;51.032;6.356;2022-09-09T03:11:36;14.70;99.90
10296;DHT22;5193;51.032;6.356;2022-09-09T03:14:02;14.70;99.90
10296;DHT22;5193;51.032;6.356;2022-09-09T03:16:27;14.70;99.90
10296;DHT22;5193;51.032;6.356;2022-09-09T03:18:53;14.70;99.90
10296;DHT22;5193;51.032;6.356;2022-09-09T03:21:19;14.70;99.90
10296;DHT22;5193;51.032;6.356;2022-09-09T03:23:44;14.70;99.90
10296;DHT22;5193;51.032;6.356;2022-09-09T03:26:10;14.80;99.90
10296;DHT22;5193;51.032;6.356;2022-09-09T03:28:36;14.80;99.90
10296;DHT22;5193;51.032;6.356;2022-09-09T03:31:03;14.80;99.90
10296;DHT22;5193;51.032;6.356;2022-09-09T03:33:29;14.80;99.90
10296;DHT22;5193;51.032;6.356;2022-09-09T03:35:55;14.90;99.90
10296;DHT22;5193;51.032;6.356;2022-09-09T03:38:23;14.90;99.90
10296;DHT22;5193;51.032;6.356;2022-09-09T03:40:53;14.90;99.90
10296;DHT22;5193;51.032;6.356;2022-09-09T03:43:25;14.90;99.90
10296;DHT22;5193;51.032;6.356;2022-09-09T03:45:50;14.90;99.90
10296;DHT22;5193;51.032;6.356;2022-09-09T03:48:17;14.90;99.90
10296;DHT22;5193;51.032;6.356;2022-09-09T03:50:47;15.00;99.90
10296;DHT22;5193;51.032;6.356;2022-09-09T03:53:15;15.00;99.90
10296;DHT22;5193;51.032;6.356;2022-09-09T03:55:47;15.00;99.90
10296;DHT22;5193;51.032;6.356;2022-09-09T03:58:14;15.00;99.90
10296;DHT22;5193;51.032;6.356;2022-09-09T04:00:40;15.00;99.90
10296;DHT22;5193;51.032;6.356;2022-09-09T04:03:11;15.00;99.90
10296;DHT22;5193;51.032;6.356;2022-09-09T04:05:39;15.00;99.90
10296;DHT22;5193;51.032;6.356;2022-09-09T04:08:08;15.00;99.90
10296;DHT22;5193;51.032;6.356;2022-09-09T04:10:34;15.10;99.90
10296;DHT22;5193;51.032;6.356;2022-09-09T04:13:04;15.10;99.90
10296;DHT22;5193;51.032;6.356;2022-09-09T04:15:31;15.10;99.90
10296;DHT22;5193;51.032;6.356;2022-09-09T04:17:56;15.20;99.90
10296;DHT22;5193;51.032;6.356;2022-09-09T04:20:22;15.20;99.90
10296;DHT22;5193;51.032;6.356;2022-09-09T04:22:48;15.20;99.90
10296;DHT22;5193;51.032;6.356;2022-09-09T04:25:14;15.20;99.90
10296;DHT22;5193;51.032;6.356;2022-09-09T04:27:39;15.20;99.90
10296;DHT22;5193;51.032;6.356;2022-09-09T04:30:06;15.20;99.90
10296;DHT22;5193;51.032;6.356;2022-09-09T04:32:33;15.30;99.90
10296;DHT22;5193;51.032;6.356;2022-09-09T04:34:59;15.30;99.90
10296;DHT22;5193;51.032;6.356;2022-09-09T04:37:24;15.30;99.90
10296;DHT22;5193;51.032;6.356;2022-09-09T04:39:50;15.30;99.90
10296;DHT22;5193;51.032;6.356;2022-09-09T04:42:16;15.30;99.90
10296;DHT22;5193;51.032;6.356;2022-09-09T04:44:43;15.30;99.90
10296;DHT22;5193;51.032;6.356;2022-09-09T04:47:09;15.30;99.90
10296;DHT22;5193;51.032;6.356;2022-09-09T04:49:35;15.30;99.90
10296;DHT22;5193;51.032;6.356;2022-09-09T04:52:02;15.30;99.90
10296;DHT22;5193;51.032;6.356;2022-09-09T04:54:28;15.30;99.90
10296;DHT22;5193;51.032;6.356;2022-09-09T04:56:54;15.30;99.90
10296;DHT22;5193;51.032;6.356;2022-09-09T04:59:20;15.30;99.90
10296;DHT22;5193;51.032;6.356;2022-09-09T05:01:47;15.30;99.90
10296;DHT22;5193;51.032;6.356;2022-09-09T05:04:13;15.30;99.90
10296;DHT22;5193;51.032;6.356;2022-09-09T05:06:40;15.30;99.90
10296;DHT22;5193;51.032;6.356;2022-09-09T05:09:08;15.30;99.90
10296;DHT22;5193;51.032;6.356;2022-09-09T05:11:34;15.30;99.90
10296;DHT22;5193;51.032;6.356;2022-09-09T05:14:04;15.30;99.90
10296;DHT22;5193;51.032;6.356;2022-09-09T05:16:30;15.30;99.90
10296;DHT22;5193;51.032;6.356;2022-09-09T05:18:56;15.30;99.90
10296;DHT22;5193;51.032;6.356;2022-09-09T05:21:23;15.30;99.90
10296;DHT22;5193;51.032;6.356;2022-09-09T05:23:50;15.30;99.90
10296;DHT22;5193;51.032;6.356;2022-09-09T05:26:21;15.30;99.90
10296;DHT22;5193;51.032;6.356;2022-09-09T05:28:47;15.20;99.90
10296;DHT22;5193;51.032;6.356;2022-09-09T05:31:14;15.30;99.90
10296;DHT22;5193;51.032;6.356;2022-09-09T05:33:42;15.30;99.90
10296;DHT22;5193;51.032;6.356;2022-09-09T05:36:11;15.30;99.90
10296;DHT22;5193;51.032;6.356;2022-09-09T05:38:39;15.30;99.90
10296;DHT22;5193;51.032;6.356;2022-09-09T05:41:06;15.20;99.90
10296;DHT22;5193;51.032;6.356;2022-09-09T05:43:33;15.30;99.90
10296;DHT22;5193;51.032;6.356;2022-09-09T05:46:12;15.30;99.90
10296;DHT22;5193;51.032;6.356;2022-09-09T05:48:40;15.30;99.90
10296;DHT22;5193;51.032;6.356;2022-09-09T05:51:10;15.30;99.90
10296;DHT22;5193;51.032;6.356;2022-09-09T05:53:41;15.30;99.90
10296;DHT22;5193;51.032;6.356;2022-09-09T05:56:10;15.30;99.90
10296;DHT22;5193;51.032;6.356;2022-09-09T05:58:36;15.40;99.90
10296;DHT22;5193;51.032;6.356;2022-09-09T06:01:07;15.40;99.90
10296;DHT22;5193;51.032;6.356;2022-09-09T06:03:34;15.40;99.90
10296;DHT22;5193;51.032;6.356;2022-09-09T06:06:03;15.40;99.90
10296;DHT22;5193;51.032;6.356;2022-09-09T06:08:31;15.40;99.90
10296;DHT22;5193;51.032;6.356;2022-09-09T06:11:04;15.40;99.90
10296;DHT22;5193;51.032;6.356;2022-09-09T06:13:31;15.40;99.90
10296;DHT22;5193;51.032;6.356;2022-09-09T06:15:57;15.40;99.90
10296;DHT22;5193;51.032;6.356;2022-09-09T06:18:24;15.40;99.90
10296;DHT22;5193;51.032;6.356;2022-09-09T06:20:57;15.50;99.90
10296;DHT22;5193;51.032;6.356;2022-09-09T06:23:24;15.50;99.90
10296;DHT22;5193;51.032;6.356;2022-09-09T06:25:51;15.60;99.90
10296;DHT22;5193;51.032;6.356;2022-09-09T06:28:17;15.70;99.90
10296;DHT22;5193;51.032;6.356;2022-09-09T06:30:43;15.70;99.90
10296;DHT22;5193;51.032;6.356;2022-09-09T06:33:10;15.80;99.90
10296;DHT22;5193;51.032;6.356;2022-09-09T06:35:35;15.90;99.90
10296;DHT22;5193;51.032;6.356;2022-09-09T06:38:01;15.90;99.90
10296;DHT22;5193;51.032;6.356;2022-09-09T06:40:26;15.90;99.90
10296;DHT22;5193;51.032;6.356;2022-09-09T06:42:52;15.90;99.90
10296;DHT22;5193;51.032;6.356;2022-09-09T06:45:18;15.90;99.90
10296;DHT22;5193;51.032;6.356;2022-09-09T06:47:44;15.90;99.90
10296;DHT22;5193;51.032;6.356;2022-09-09T06:50:10;15.90;99.90
10296;DHT22;5193;51.032;6.356;2022-09-09T06:52:36;15.90;99.90
10296;DHT22;5193;51.032;6.356;2022-09-09T06:55:03;15.90;99.90
10296;DHT22;5193;51.032;6.356;2022-09-09T06:57:29;16.00;99.90
10296;DHT22;5193;51.032;6.356;2022-09-09T06:59:54;16.10;99.90
10296;DHT22;5193;51.032;6.356;2022-09-09T07:02:20;16.10;99.90
10296;DHT22;5193;51.032;6.356;2022-09-09T07:04:46;16.20;99.90
10296;DHT22;5193;51.032;6.356;2022-09-09T07:07:12;16.30;99.90
10296;DHT22;5193;51.032;6.356;2022-09-09T07:09:39;16.40;99.90
10296;DHT22;5193;51.032;6.356;2022-09-09T07:12:05;16.50;99.90
10296;DHT22;5193;51.032;6.356;2022-09-09T07:14:31;16.70;99.90
10296;DHT22;5193;51.032;6.356;2022-09-09T07:16:58;16.80;99.90
10296;DHT22;5193;51.032;6.356;2022-09-09T07:19:23;17.00;99.90
10296;DHT22;5193;51.032;6.356;2022-09-09T07:21:49;17.20;99.90
10296;DHT22;5193;51.032;6.356;2022-09-09T07:24:15;17.30;99.90
10296;DHT22;5193;51.032;6.356;2022-09-09T07:26:41;17.40;99.90
10296;DHT22;5193;51.032;6.356;2022-09-09T07:29:08;17.60;99.90
10296;DHT22;5193;51.032;6.356;2022-09-09T07:31:37;17.80;99.90
10296;DHT22;5193;51.032;6.356;2022-09-09T07:34:04;17.90;99.90
10296;DHT22;5193;51.032;6.356;2022-09-09T07:36:35;17.90;99.90
10296;DHT22;5193;51.032;6.356;2022-09-09T07:39:03;17.90;99.90
10296;DHT22;5193;51.032;6.356;2022-09-09T07:41:38;17.90;99.90
10296;DHT22;5193;51.032;6.356;2022-09-09T07:44:10;18.00;99.90
10296;DHT22;5193;51.032;6.356;2022-09-09T07:46:37;18.00;99.90
10296;DHT22;5193;51.032;6.356;2022-09-09T07:49:05;18.10;99.90
10296;DHT22;5193;51.032;6.356;2022-09-09T07:51:35;18.30;99.90
10296;DHT22;5193;51.032;6.356;2022-09-09T07:54:04;18.30;99.90
10296;DHT22;5193;51.032;6.356;2022-09-09T07:56:31;18.40;99.90
10296;DHT22;5193;51.032;6.356;2022-09-09T07:58:58;18.40;99.90
10296;DHT22;5193;51.032;6.356;2022-09-09T08:01:30;18.50;99.90
10296;DHT22;5193;51.032;6.356;2022-09-09T08:04:01;18.60;99.90
10296;DHT22;5193;51.032;6.356;2022-09-09T08:06:29;18.70;99.90
10296;DHT22;5193;51.032;6.356;2022-09-09T08:08:55;18.80;99.90
10296;DHT22;5193;51.032;6.356;2022-09-09T08:11:22;18.80;99.90
10296;DHT22;5193;51.032;6.356;2022-09-09T08:13:49;18.90;99.90
10296;DHT22;5193;51.032;6.356;2022-09-09T08:16:19;18.90;99.90
10296;DHT22;5193;51.032;6.356;2022-09-09T08:18:48;18.90;99.90
10296;DHT22;5193;51.032;6.356;2022-09-09T08:21:18;18.90;99.90
10296;DHT22;5193;51.032;6.356;2022-09-09T08:23:45;18.80;99.90
10296;DHT22;5193;51.032;6.356;2022-09-09T08:26:17;18.70;99.90
10296;DHT22;5193;51.032;6.356;2022-09-09T08:28:51;18.70;99.90
10296;DHT22;5193;51.032;6.356;2022-09-09T08:31:34;18.70;99.90
10296;DHT22;5193;51.032;6.356;2022-09-09T08:34:01;18.70;99.90
10296;DHT22;5193;51.032;6.356;2022-09-09T08:36:30;18.70;99.90
10296;DHT22;5193;51.032;6.356;2022-09-09T08:38:57;18.70;99.90
10296;DHT22;5193;51.032;6.356;2022-09-09T08:52:39;18.70;99.90
10296;DHT22;5193;51.032;6.356;2022-09-09T08:55:21;18.90;99.90
10296;DHT22;5193;51.032;6.356;2022-09-09T08:57:53;19.00;99.90
10296;DHT22;5193;51.032;6.356;2022-09-09T09:00:20;19.10;99.90
10296;DHT22;5193;51.032;6.356;2022-09-09T09:05:37;19.20;99.90
10296;DHT22;5193;51.032;6.356;2022-09-09T09:10:50;19.30;99.90
10296;DHT22;5193;51.032;6.356;2022-09-09T09:18:50;19.70;99.90
10296;DHT22;5193;51.032;6.356;2022-09-09T09:21:25;19.80;99.90
10296;DHT22;5193;51.032;6.356;2022-09-09T09:24:00;20.10;99.90
10296;DHT22;5193;51.032;6.356;2022-09-09T09:26:33;20.20;99.90
10296;DHT22;5193;51.032;6.356;2022-09-09T09:29:08;20.40;99.90
10296;DHT22;5193;51.032;6.356;2022-09-09T09:31:35;20.50;99.90
10296;DHT22;5193;51.032;6.356;2022-09-09T09:34:01;20.60;99.90
10296;DHT22;5193;51.032;6.356;2022-09-09T09:36:41;20.70;99.90
10296;DHT22;5193;51.032;6.356;2022-09-09T09:39:08;20.80;99.90
10296;DHT22;5193;51.032;6.356;2022-09-09T09:41:38;20.90;99.90
10296;DHT22;5193;51.032;6.356;2022-09-09T09:44:22;20.90;99.90
10296;DHT22;5193;51.032;6.356;2022-09-09T09:46:48;21.10;99.90
10296;DHT22;5193;51.032;6.356;2022-09-09T09:49:13;21.20;99.90
10296;DHT22;5193;51.032;6.356;2022-09-09T09:51:40;21.10;99.90
10296;DHT22;5193;51.032;6.356;2022-09-09T09:54:22;21.00;99.90
10296;DHT22;5193;51.032;6.356;2022-09-09T09:56:52;21.00;99.90
10296;DHT22;5193;51.032;6.356;2022-09-09T09:59:32;21.10;99.90
10296;DHT22;5193;51.032;6.356;2022-09-09T10:02:17;21.10;99.90
10296;DHT22;5193;51.032;6.356;2022-09-09T10:04:43;21.40;99.90
10296;DHT22;5193;51.032;6.356;2022-09-09T10:07:20;21.50;99.90
10296;DHT22;5193;51.032;6.356;2022-09-09T10:09:53;21.50;99.90
10296;DHT22;5193;51.032;6.356;2022-09-09T10:15:20;21.60;99.90
10296;DHT22;5193;51.032;6.356;2022-09-09T10:24:10;21.40;99.90
10296;DHT22;5193;51.032;6.356;2022-09-09T10:27:01;21.20;99.90
10296;DHT22;5193;51.032;6.356;2022-09-09T10:29:38;21.00;99.90
10296;DHT22;5193;51.032;6.356;2022-09-09T10:34:51;20.90;99.90
10296;DHT22;5193;51.032;6.356;2022-09-09T10:42:49;21.00;99.90
10296;DHT22;5193;51.032;6.356;2022-09-09T10:48:41;21.10;99.90
10296;DHT22;5193;51.032;6.356;2022-09-09T10:51:23;21.10;99.90
10296;DHT22;5193;51.032;6.356;2022-09-09T10:54:13;21.10;99.90
10296;DHT22;5193;51.032;6.356;2022-09-09T10:56:44;21.00;99.90
10296;DHT22;5193;51.032;6.356;2022-09-09T10:59:22;21.10;99.90
10296;DHT22;5193;51.032;6.356;2022-09-09T11:04:45;21.10;99.90
10296;DHT22;5193;51.032;6.356;2022-09-09T11:07:24;21.20;99.90
10296;DHT22;5193;51.032;6.356;2022-09-09T11:09:54;21.10;99.90
10296;DHT22;5193;51.032;6.356;2022-09-09T11:12:23;21.20;99.90
10296;DHT22;5193;51.032;6.356;2022-09-09T11:15:17;21.20;99.90
10296;DHT22;5193;51.032;6.356;2022-09-09T11:17:49;21.20;99.90
10296;DHT22;5193;51.032;6.356;2022-09-09T11:20:16;21.20;99.90
10296;DHT22;5193;51.032;6.356;2022-09-09T11:22:46;21.20;99.90
10296;DHT22;5193;51.032;6.356;2022-09-09T11:25:30;21.20;99.90
10296;DHT22;5193;51.032;6.356;2022-09-09T11:39:38;21.50;99.90
10296;DHT22;5193;51.032;6.356;2022-09-09T11:44:39;21.50;99.90
10296;DHT22;5193;51.032;6.356;2022-09-09T11:47:24;21.60;99.90
10296;DHT22;5193;51.032;6.356;2022-09-09T11:49:54;21.80;99.90
10296;DHT22;5193;51.032;6.356;2022-09-09T11:52:41;21.90;99.90
10296;DHT22;5193;51.032;6.356;2022-09-09T11:55:27;22.00;99.90
10296;DHT22;5193;51.032;6.356;2022-09-09T11:58:04;21.90;99.90
10296;DHT22;5193;51.032;6.356;2022-09-09T12:00:48;21.90;99.90
10296;DHT22;5193;51.032;6.356;2022-09-09T12:06:11;22.10;99.90
10296;DHT22;5193;51.032;6.356;2022-09-09T12:08:37;22.10;99.90
10296;DHT22;5193;51.032;6.356;2022-09-09T12:11:06;22.00;99.90
10296;DHT22;5193;51.032;6.356;2022-09-09T12:13:32;21.90;99.90
10296;DHT22;5193;51.032;6.356;2022-09-09T12:15:59;21.90;99.90
10296;DHT22;5193;51.032;6.356;2022-09-09T12:18:37;21.80;99.90
10296;DHT22;5193;51.032;6.356;2022-09-09T12:21:39;21.60;99.90
10296;DHT22;5193;51.032;6.356;2022-09-09T12:24:09;21.50;99.90
10296;DHT22;5193;51.032;6.356;2022-09-09T12:26:37;21.30;99.90
10296;DHT22;5193;51.032;6.356;2022-09-09T12:34:41;21.00;99.90
10296;DHT22;5193;51.032;6.356;2022-09-09T12:39:57;21.00;99.90
10296;DHT22;5193;51.032;6.356;2022-09-09T12:42:24;21.00;99.90
10296;DHT22;5193;51.032;6.356;2022-09-09T12:44:52;21.10;99.90
10296;DHT22;5193;51.032;6.356;2022-09-09T12:47:20;21.10;99.90
10296;DHT22;5193;51.032;6.356;2022-09-09T12:49:48;21.20;99.90
10296;DHT22;5193;51.032;6.356;2022-09-09T12:54:45;21.20;99.90
10296;DHT22;5193;51.032;6.356;2022-09-09T12:57:17;21.10;99.90
10296;DHT22;5193;51.032;6.356;2022-09-09T12:59:43;21.20;99.90
10296;DHT22;5193;51.032;6.356;2022-09-09T13:02:26;21.40;99.90
10296;DHT22;5193;51.032;6.356;2022-09-09T13:04:53;21.50;99.90
10296;DHT22;5193;51.032;6.356;2022-09-09T13:07:21;21.50;99.90
10296;DHT22;5193;51.032;6.356;2022-09-09T13:09:48;21.40;99.90
10296;DHT22;5193;51.032;6.356;2022-09-09T13:12:22;21.30;99.90
10296;DHT22;5193;51.032;6.356;2022-09-09T13:14:55;21.30;99.90
10296;DHT22;5193;51.032;6.356;2022-09-09T13:17:24;21.00;99.90
10296;DHT22;5193;51.032;6.356;2022-09-09T13:19:51;20.80;99.90
10296;DHT22;5193;51.032;6.356;2022-09-09T13:22:37;20.60;99.90
10296;DHT22;5193;51.032;6.356;2022-09-09T13:27:38;20.60;99.90
10296;DHT22;5193;51.032;6.356;2022-09-09T13:30:40;20.70;99.90
10296;DHT22;5193;51.032;6.356;2022-09-09T13:35:57;21.00;99.90
10296;DHT22;5193;51.032;6.356;2022-09-09T13:38:24;21.10;99.90
10296;DHT22;5193;51.032;6.356;2022-09-09T13:41:09;21.10;99.90
10296;DHT22;5193;51.032;6.356;2022-09-09T13:43:45;21.40;99.90
10296;DHT22;5193;51.032;6.356;2022-09-09T13:46:32;21.50;99.90
10296;DHT22;5193;51.032;6.356;2022-09-09T13:49:19;21.50;99.90
10296;DHT22;5193;51.032;6.356;2022-09-09T13:51:48;21.50;99.90
10296;DHT22;5193;51.032;6.356;2022-09-09T13:54:18;21.40;99.90
10296;DHT22;5193;51.032;6.356;2022-09-09T13:56:44;21.30;99.90
10296;DHT22;5193;51.032;6.356;2022-09-09T13:59:16;21.20;99.90
10296;DHT22;5193;51.032;6.356;2022-09-09T14:01:43;21.20;99.90
10296;DHT22;5193;51.032;6.356;2022-09-09T14:04:10;21.20;99.90
10296;DHT22;5193;51.032;6.356;2022-09-09T14:06:36;21.00;99.90
10296;DHT22;5193;51.032;6.356;2022-09-09T14:09:04;20.90;99.90
10296;DHT22;5193;51.032;6.356;2022-09-09T14:11:29;20.80;99.90
10296;DHT22;5193;51.032;6.356;2022-09-09T14:13:55;20.80;99.90
10296;DHT22;5193;51.032;6.356;2022-09-09T14:16:21;20.50;99.90
10296;DHT22;5193;51.032;6.356;2022-09-09T14:18:47;20.10;99.90
10296;DHT22;5193;51.032;6.356;2022-09-09T14:21:13;19.50;99.90
10296;DHT22;5193;51.032;6.356;2022-09-09T14:23:41;18.70;99.90
10296;DHT22;5193;51.032;6.356;2022-09-09T14:26:07;18.00;99.90
10296;DHT22;5193;51.032;6.356;2022-09-09T14:28:34;17.50;99.90
10296;DHT22;5193;51.032;6.356;2022-09-09T14:31:01;17.30;99.90
10296;DHT22;5193;51.032;6.356;2022-09-09T14:33:27;17.20;99.90
10296;DHT22;5193;51.032;6.356;2022-09-09T14:36:00;17.10;99.90
10296;DHT22;5193;51.032;6.356;2022-09-09T14:38:30;17.00;99.90
10296;DHT22;5193;51.032;6.356;2022-09-09T14:40:55;16.90;99.90
10296;DHT22;5193;51.032;6.356;2022-09-09T14:43:21;16.90;99.90
10296;DHT22;5193;51.032;6.356;2022-09-09T14:45:47;17.10;99.90
10296;DHT22;5193;51.032;6.356;2022-09-09T14:48:17;17.10;99.90
10296;DHT22;5193;51.032;6.356;2022-09-09T14:50:43;17.20;99.90
10296;DHT22;5193;51.032;6.356;2022-09-09T14:53:08;17.30;99.90
10296;DHT22;5193;51.032;6.356;2022-09-09T14:55:35;17.30;99.90
10296;DHT22;5193;51.032;6.356;2022-09-09T14:58:01;17.30;99.90
10296;DHT22;5193;51.032;6.356;2022-09-09T15:00:26;17.40;99.90
10296;DHT22;5193;51.032;6.356;2022-09-09T15:02:53;17.60;99.90
10296;DHT22;5193;51.032;6.356;2022-09-09T15:05:19;17.60;99.90
10296;DHT22;5193;51.032;6.356;2022-09-09T15:07:45;17.70;99.90
10296;DHT22;5193;51.032;6.356;2022-09-09T15:10:10;17.70;99.90
10296;DHT22;5193;51.032;6.356;2022-09-09T15:12:36;17.80;99.90
10296;DHT22;5193;51.032;6.356;2022-09-09T15:15:04;17.80;99.90
10296;DHT22;5193;51.032;6.356;2022-09-09T15:17:30;17.80;99.90
10296;DHT22;5193;51.032;6.356;2022-09-09T15:19:56;17.90;99.90
10296;DHT22;5193;51.032;6.356;2022-09-09T15:22:21;18.00;99.90
10296;DHT22;5193;51.032;6.356;2022-09-09T15:24:48;18.10;99.90
10296;DHT22;5193;51.032;6.356;2022-09-09T15:27:16;18.20;99.90
10296;DHT22;5193;51.032;6.356;2022-09-09T15:29:43;18.30;99.90
10296;DHT22;5193;51.032;6.356;2022-09-09T15:32:09;18.50;99.90
10296;DHT22;5193;51.032;6.356;2022-09-09T15:34:35;18.70;99.90
10296;DHT22;5193;51.032;6.356;2022-09-09T15:37:01;18.90;99.90
10296;DHT22;5193;51.032;6.356;2022-09-09T15:39:27;18.90;99.90
10296;DHT22;5193;51.032;6.356;2022-09-09T15:41:53;18.90;99.90
10296;DHT22;5193;51.032;6.356;2022-09-09T15:44:18;18.80;99.90
10296;DHT22;5193;51.032;6.356;2022-09-09T15:46:53;18.70;99.90
10296;DHT22;5193;51.032;6.356;2022-09-09T15:49:23;18.60;99.90
10296;DHT22;5193;51.032;6.356;2022-09-09T15:51:54;18.60;99.90
10296;DHT22;5193;51.032;6.356;2022-09-09T15:54:22;18.50;99.90
10296;DHT22;5193;51.032;6.356;2022-09-09T15:56:54;18.40;99.90
10296;DHT22;5193;51.032;6.356;2022-09-09T15:59:25;18.30;99.90
10296;DHT22;5193;51.032;6.356;2022-09-09T16:01:51;18.30;99.90
10296;DHT22;5193;51.032;6.356;2022-09-09T16:04:18;18.20;99.90
10296;DHT22;5193;51.032;6.356;2022-09-09T16:06:52;18.20;99.90
10296;DHT22;5193;51.032;6.356;2022-09-09T16:09:19;18.20;99.90
10296;DHT22;5193;51.032;6.356;2022-09-09T16:11:45;18.40;99.90
10296;DHT22;5193;51.032;6.356;2022-09-09T16:14:13;18.50;99.90
10296;DHT22;5193;51.032;6.356;2022-09-09T16:16:39;18.60;99.90
10296;DHT22;5193;51.032;6.356;2022-09-09T16:19:06;18.80;99.90
10296;DHT22;5193;51.032;6.356;2022-09-09T16:21:35;18.90;99.90
10296;DHT22;5193;51.032;6.356;2022-09-09T16:24:02;19.00;99.90
10296;DHT22;5193;51.032;6.356;2022-09-09T16:26:30;19.00;99.90
10296;DHT22;5193;51.032;6.356;2022-09-09T16:28:56;19.10;99.90
10296;DHT22;5193;51.032;6.356;2022-09-09T16:31:26;19.10;99.90
10296;DHT22;5193;51.032;6.356;2022-09-09T16:33:52;19.10;99.90
10296;DHT22;5193;51.032;6.356;2022-09-09T16:36:23;19.20;99.90
10296;DHT22;5193;51.032;6.356;2022-09-09T16:38:54;19.20;99.90
10296;DHT22;5193;51.032;6.356;2022-09-09T16:41:20;19.20;99.90
10296;DHT22;5193;51.032;6.356;2022-09-09T16:43:47;19.20;99.90
10296;DHT22;5193;51.032;6.356;2022-09-09T16:46:13;19.20;99.90
10296;DHT22;5193;51.032;6.356;2022-09-09T16:48:41;19.20;99.90
10296;DHT22;5193;51.032;6.356;2022-09-09T16:51:11;19.10;99.90
10296;DHT22;5193;51.032;6.356;2022-09-09T16:53:37;19.00;99.90
10296;DHT22;5193;51.032;6.356;2022-09-09T16:56:06;19.00;99.90
10296;DHT22;5193;51.032;6.356;2022-09-09T16:58:32;18.90;99.90
10296;DHT22;5193;51.032;6.356;2022-09-09T17:00:59;18.80;99.90
10296;DHT22;5193;51.032;6.356;2022-09-09T17:03:25;18.80;99.90
10296;DHT22;5193;51.032;6.356;2022-09-09T17:05:51;18.80;99.90
10296;DHT22;5193;51.032;6.356;2022-09-09T17:08:16;18.80;99.90
10296;DHT22;5193;51.032;6.356;2022-09-09T17:10:42;18.70;99.90
10296;DHT22;5193;51.032;6.356;2022-09-09T17:13:08;18.70;99.90
10296;DHT22;5193;51.032;6.356;2022-09-09T17:15:38;18.60;99.90
10296;DHT22;5193;51.032;6.356;2022-09-09T17:18:05;18.50;99.90
10296;DHT22;5193;51.032;6.356;2022-09-09T17:20:34;18.40;99.90
10296;DHT22;5193;51.032;6.356;2022-09-09T17:23:00;18.30;99.90
10296;DHT22;5193;51.032;6.356;2022-09-09T17:25:25;18.20;99.90
10296;DHT22;5193;51.032;6.356;2022-09-09T17:27:51;18.20;99.90
10296;DHT22;5193;51.032;6.356;2022-09-09T17:30:17;18.10;99.90
10296;DHT22;5193;51.032;6.356;2022-09-09T17:32:43;18.00;99.90
10296;DHT22;5193;51.032;6.356;2022-09-09T17:35:09;18.00;99.90
10296;DHT22;5193;51.032;6.356;2022-09-09T17:37:34;17.90;99.90
10296;DHT22;5193;51.032;6.356;2022-09-09T17:40:00;17.90;99.90
10296;DHT22;5193;51.032;6.356;2022-09-09T17:42:26;17.90;99.90
10296;DHT22;5193;51.032;6.356;2022-09-09T17:44:51;17.80;99.90
10296;DHT22;5193;51.032;6.356;2022-09-09T17:47:17;17.80;99.90
10296;DHT22;5193;51.032;6.356;2022-09-09T17:49:43;17.80;99.90
10296;DHT22;5193;51.032;6.356;2022-09-09T17:52:08;17.80;99.90
10296;DHT22;5193;51.032;6.356;2022-09-09T17:54:34;17.70;99.90